RYR19NG EPMO-LIMC
Flight info
| Callsign | RYR19NG |
|---|---|
| Flight time | N/A |
| Altitude | 38000 |
| Route | EVINA DCT NAVUR N744 TUSIN DCT NAVTI DCT LIMRA DCT OBEDI DCT DETSA/N0453F390 DCT BAKOR DCT NAXAV DCT RENTA DCT ATPED DCT LUSIL DCT EVRIP |
| Aircraft | B38M/M-SADE3FGILRWY/SB1 |
Departure
| Time | 2026-04-21 14:15 |
|---|---|
| Airport | Warsaw Modlin Airport (EPMO) |
Arrival
| Time | N/A |
|---|---|
| Airport | Milan Malpensa International Airport (LIMC) |
| Time | Latitude | Longitude | Altitude | Speed | Heading |
|---|---|---|---|---|---|
| 2026-04-21 14:10 | 52.44800 | 20.65349 | 338 ft | 0 kts | 261° |
| 2026-04-21 14:12 | 52.44798 | 20.65326 | 335 ft | 7 kts | 262° |
| 2026-04-21 14:12 | 52.44783 | 20.65173 | 340 ft | 20 kts | 261° |
| 2026-04-21 14:12 | 52.44753 | 20.64890 | 340 ft | 31 kts | 260° |
| 2026-04-21 14:12 | 52.44720 | 20.64508 | 339 ft | 32 kts | 262° |
| 2026-04-21 14:13 | 52.44686 | 20.64149 | 340 ft | 32 kts | 261° |
| 2026-04-21 14:13 | 52.44651 | 20.63777 | 340 ft | 34 kts | 261° |
| 2026-04-21 14:13 | 52.44639 | 20.63479 | 339 ft | 13 kts | 301° |
| 2026-04-21 14:13 | 52.44725 | 20.63433 | 337 ft | 14 kts | 352° |
| 2026-04-21 14:14 | 52.44831 | 20.63404 | 338 ft | 16 kts | 349° |
| 2026-04-21 14:14 | 52.44945 | 20.63390 | 341 ft | 15 kts | 26° |
| 2026-04-21 14:14 | 52.44960 | 20.63446 | 341 ft | 1 kts | 82° |
| 2026-04-21 14:14 | 52.44961 | 20.63449 | 341 ft | 0 kts | 82° |
| 2026-04-21 14:15 | 52.44986 | 20.63709 | 339 ft | 61 kts | 82° |
| 2026-04-21 14:15 | 52.45097 | 20.64869 | 335 ft | 142 kts | 81° |
| 2026-04-21 14:15 | 52.45221 | 20.66773 | 641 ft | 180 kts | 86° |
| 2026-04-21 14:15 | 52.45337 | 20.68757 | 1743 ft | 172 kts | 78° |
| 2026-04-21 14:16 | 52.45555 | 20.70685 | 2632 ft | 176 kts | 77° |
| 2026-04-21 14:16 | 52.45801 | 20.72739 | 3292 ft | 189 kts | 74° |
| 2026-04-21 14:16 | 52.46014 | 20.74944 | 3956 ft | 209 kts | 86° |
| 2026-04-21 14:16 | 52.45574 | 20.77355 | 4479 ft | 237 kts | 120° |
| 2026-04-21 14:17 | 52.44287 | 20.79202 | 5011 ft | 260 kts | 154° |
| 2026-04-21 14:17 | 52.42513 | 20.79506 | 5902 ft | 259 kts | 192° |
| 2026-04-21 14:17 | 52.40780 | 20.78652 | 6758 ft | 267 kts | 197° |
| 2026-04-21 14:17 | 52.39582 | 20.78077 | 7232 ft | 272 kts | 196° |
| 2026-04-21 14:18 | 52.37778 | 20.77220 | 8272 ft | 273 kts | 195° |
| 2026-04-21 14:18 | 52.35910 | 20.76345 | 9037 ft | 286 kts | 194° |
| 2026-04-21 14:18 | 52.33944 | 20.75423 | 9673 ft | 301 kts | 194° |
| 2026-04-21 14:18 | 52.31915 | 20.74507 | 10518 ft | 304 kts | 194° |